Terminal Aerodrome Forecast
Issued by NWS

Home | Current Version | Previous Version | Text Only | Print | Product List | Glossary Off
Versions: 1 2 3 4 5 6 7 8 9 10 11 12 13 14 15 16 17

239
FTUS43 KGRB 271124
TAFATW
TAF
KATW 271124Z 2712/2812 27013G18KT P6SM OVC050
     FM271500 28015G23KT P6SM OVC027
      TEMPO 2715/2719 -SHRA
     FM271900 28012G19KT P6SM -SHRA OVC024
     FM280000 28007KT P6SM -SHRA OVC021
     FM280300 30006KT P6SM -SHRA OVC015
     FM280800 33005KT P6SM OVC006=

USA.gov is the U.S. government's official web portal to all federal, state and local government web resources and services.